Baton Rouge — 2CZZ7 — position and weather

sailwx.info

Track history (hours):
 
Tides and Currents Weather Stations Pressure Air Temp Water Temp Dewpoint Dewpoint Depression Visibility Wind Speed Wind Dir Waves Ship Positions

Baton Rouge

Last reported at 2015-Sep-03 19:28 UTC. Time now 2015-Sep-03 23:30 UTC.
Position N 43°32' E 007°02'.

Length 62 m; draft 3.7 m.

Type: Pleasure craft. MMSI: 235077185.

Date/timePositionNaut miles runAvg speedWind from/ knotsBaromVisibWave heightAir tempDewpointWater temp
2015-Sep-03 19:28N 43°32' E 007°02'0 0.0
2015-Sep-03 18:28N 43°32' E 007°02'0 0.0
2015-Sep-03 17:22N 43°32' E 007°02'0 0.0
2015-Sep-03 16:22N 43°32' E 007°02'0 0.0
2015-Sep-03 15:28N 43°32' E 007°02'0 0.0
2015-Sep-03 14:28N 43°32' E 007°02'0 0.0
2015-Sep-03 13:28N 43°32' E 007°02'0 0.0
2015-Sep-03 11:28N 43°32' E 007°02'0 0.0
2015-Sep-03 10:28N 43°32' E 007°02'0 0.0
2015-Sep-03 09:10N 43°32' E 007°02'0 0.0
2015-Sep-03 08:28N 43°32' E 007°02'0 0.0
2015-Sep-03 07:28N 43°32' E 007°02'0 0.0
2015-Sep-02 20:10N 43°32' E 007°02'0 0.0
2015-Sep-02 19:28N 43°32' E 007°02'0 0.0
2015-Sep-02 16:22N 43°32' E 007°02'0 0.0
2015-Sep-02 15:28N 43°32' E 007°02'0 0.0
2015-Sep-02 13:28N 43°32' E 007°02'0 0.0
2015-Sep-02 12:29N 43°32' E 007°02'0 0.0
2015-Sep-02 11:28N 43°32' E 007°02'0 0.0
2015-Sep-02 10:22N 43°32' E 007°02'0 0.0
2015-Sep-02 09:22N 43°32' E 007°02'0 0.0
2015-Sep-02 08:28N 43°32' E 007°02'0 0.0
2015-Sep-02 07:22N 43°32' E 007°02'0 0.0
2015-Sep-02 06:22N 43°32' E 007°02'0 0.0
2015-Sep-02 05:28N 43°32' E 007°02'0 0.0
2015-Sep-02 03:04N 43°32' E 007°02'0 0.0
2015-Sep-02 02:22N 43°32' E 007°02'0 0.0
2015-Sep-02 01:28N 43°32' E 007°02'0 0.0
2015-Sep-02 00:22N 43°32' E 007°02'0 0.0
2015-Sep-01 23:22N 43°32' E 007°02'0 0.0
2015-Sep-01 22:16N 43°32' E 007°02'0 0.0
2015-Sep-01 21:28N 43°32' E 007°02'0 0.0
2015-Sep-01 18:22N 43°32' E 007°02'0 0.0
2015-Sep-01 17:19N 43°32' E 007°02'0 0.0
2015-Sep-01 16:28N 43°32' E 007°02'0 0.0
2015-Sep-01 15:31N 43°32' E 007°02'0 0.0
2015-Sep-01 14:22N 43°32' E 007°02'0 0.0
2015-Sep-01 13:22N 43°32' E 007°02'0 0.0
2015-Sep-01 12:25N 43°32' E 007°02'0 0.2
2015-Sep-01 11:30N 43°33' E 007°02'0 0.2
2015-Sep-01 10:31N 43°32' E 007°02'0 0.0
2015-Sep-01 09:19N 43°32' E 007°02'0 0.0
2015-Sep-01 08:31N 43°32' E 007°02'0 0.0
2015-Sep-01 07:31N 43°32' E 007°02'0 0.1
2015-Sep-01 06:33N 43°32' E 007°02'9 9.1
2015-Sep-01 05:33N 43°35' E 007°13'  
2015-Aug-28 08:29N 43°44' E 007°27'0 0.0
2015-Aug-28 07:06N 43°44' E 007°27'0 0.0
2015-Aug-28 06:33N 43°44' E 007°27'0 0.0
2015-Aug-28 00:29N 43°44' E 007°27'0 0.0
2015-Aug-27 21:28N 43°44' E 007°27'0 0.0
2015-Aug-27 18:34N 43°44' E 007°27'0 0.0
2015-Aug-27 17:17N 43°44' E 007°26'1 0.1
2015-Aug-27 11:11N 43°44' E 007°26'0 0.0
2015-Aug-27 07:29N 43°44' E 007°26'0 0.0
2015-Aug-26 09:14N 43°44' E 007°26'0 0.0
2015-Aug-26 07:11N 43°44' E 007°26'0 0.0
2015-Aug-26 06:23N 43°44' E 007°26'0 0.0
2015-Aug-25 11:23N 43°44' E 007°26'8 9.7
2015-Aug-25 10:33N 43°38' E 007°19'1312.6
2015-Aug-25 09:32N 43°30' E 007°05'3 1.0
2015-Aug-25 06:19N 43°32' E 007°02'0 0.0
2015-Aug-25 04:13N 43°32' E 007°02'0 0.0
2015-Aug-25 02:25N 43°32' E 007°02'0 0.0
2015-Aug-25 00:31N 43°32' E 007°02'0 0.0
2015-Aug-24 23:31N 43°32' E 007°02'0 0.0
2015-Aug-24 22:31N 43°32' E 007°02'0 0.0
2015-Aug-24 21:31N 43°32' E 007°02'0 0.0
2015-Aug-24 20:19N 43°32' E 007°02'0 0.0
2015-Aug-24 19:31N 43°32' E 007°02'  
Track history (hours):
 
Tides and Currents Weather Stations Pressure Air Temp Water Temp Dewpoint Dewpoint Depression Visibility Wind Speed Wind Dir Waves Ship Positions

Baton Rouge

Last reported at 2015-Sep-03 19:28 UTC. Time now 2015-Sep-03 23:30 UTC.
Position N 43°32' E 007°02'.

Length 62 m; draft 3.7 m.

Type: Pleasure craft. MMSI: 235077185.

Date/timePositionNaut miles runAvg speedWind from/ knotsBaromVisibWave heightAir tempDewpointWater temp
2015-Sep-03 19:28N 43°32' E 007°02'0 0.0
2015-Sep-03 18:28N 43°32' E 007°02'0 0.0
2015-Sep-03 17:22N 43°32' E 007°02'0 0.0
2015-Sep-03 16:22N 43°32' E 007°02'0 0.0
2015-Sep-03 15:28N 43°32' E 007°02'0 0.0
2015-Sep-03 14:28N 43°32' E 007°02'0 0.0
2015-Sep-03 13:28N 43°32' E 007°02'0 0.0
2015-Sep-03 11:28N 43°32' E 007°02'0 0.0
2015-Sep-03 10:28N 43°32' E 007°02'0 0.0
2015-Sep-03 09:10N 43°32' E 007°02'0 0.0
2015-Sep-03 08:28N 43°32' E 007°02'0 0.0
2015-Sep-03 07:28N 43°32' E 007°02'0 0.0
2015-Sep-02 20:10N 43°32' E 007°02'0 0.0
2015-Sep-02 19:28N 43°32' E 007°02'0 0.0
2015-Sep-02 16:22N 43°32' E 007°02'0 0.0
2015-Sep-02 15:28N 43°32' E 007°02'0 0.0
2015-Sep-02 13:28N 43°32' E 007°02'0 0.0
2015-Sep-02 12:29N 43°32' E 007°02'0 0.0
2015-Sep-02 11:28N 43°32' E 007°02'0 0.0
2015-Sep-02 10:22N 43°32' E 007°02'0 0.0
2015-Sep-02 09:22N 43°32' E 007°02'0 0.0
2015-Sep-02 08:28N 43°32' E 007°02'0 0.0
2015-Sep-02 07:22N 43°32' E 007°02'0 0.0
2015-Sep-02 06:22N 43°32' E 007°02'0 0.0
2015-Sep-02 05:28N 43°32' E 007°02'0 0.0
2015-Sep-02 03:04N 43°32' E 007°02'0 0.0
2015-Sep-02 02:22N 43°32' E 007°02'0 0.0
2015-Sep-02 01:28N 43°32' E 007°02'0 0.0
2015-Sep-02 00:22N 43°32' E 007°02'0 0.0
2015-Sep-01 23:22N 43°32' E 007°02'0 0.0
2015-Sep-01 22:16N 43°32' E 007°02'0 0.0
2015-Sep-01 21:28N 43°32' E 007°02'0 0.0
2015-Sep-01 18:22N 43°32' E 007°02'0 0.0
2015-Sep-01 17:19N 43°32' E 007°02'0 0.0
2015-Sep-01 16:28N 43°32' E 007°02'0 0.0
2015-Sep-01 15:31N 43°32' E 007°02'0 0.0
2015-Sep-01 14:22N 43°32' E 007°02'0 0.0
2015-Sep-01 13:22N 43°32' E 007°02'0 0.0
2015-Sep-01 12:25N 43°32' E 007°02'0 0.2
2015-Sep-01 11:30N 43°33' E 007°02'0 0.2
2015-Sep-01 10:31N 43°32' E 007°02'0 0.0
2015-Sep-01 09:19N 43°32' E 007°02'0 0.0
2015-Sep-01 08:31N 43°32' E 007°02'0 0.0
2015-Sep-01 07:31N 43°32' E 007°02'0 0.1
2015-Sep-01 06:33N 43°32' E 007°02'9 9.1
2015-Sep-01 05:33N 43°35' E 007°13'  
2015-Aug-28 08:29N 43°44' E 007°27'0 0.0
2015-Aug-28 07:06N 43°44' E 007°27'0 0.0
2015-Aug-28 06:33N 43°44' E 007°27'0 0.0
2015-Aug-28 00:29N 43°44' E 007°27'0 0.0
2015-Aug-27 21:28N 43°44' E 007°27'0 0.0
2015-Aug-27 18:34N 43°44' E 007°27'0 0.0
2015-Aug-27 17:17N 43°44' E 007°26'1 0.1
2015-Aug-27 11:11N 43°44' E 007°26'0 0.0
2015-Aug-27 07:29N 43°44' E 007°26'0 0.0
2015-Aug-26 09:14N 43°44' E 007°26'0 0.0
2015-Aug-26 07:11N 43°44' E 007°26'0 0.0
2015-Aug-26 06:23N 43°44' E 007°26'0 0.0
2015-Aug-25 11:23N 43°44' E 007°26'8 9.7
2015-Aug-25 10:33N 43°38' E 007°19'1312.6
2015-Aug-25 09:32N 43°30' E 007°05'3 1.0
2015-Aug-25 06:19N 43°32' E 007°02'0 0.0
2015-Aug-25 04:13N 43°32' E 007°02'0 0.0
2015-Aug-25 02:25N 43°32' E 007°02'0 0.0
2015-Aug-25 00:31N 43°32' E 007°02'0 0.0
2015-Aug-24 23:31N 43°32' E 007°02'0 0.0
2015-Aug-24 22:31N 43°32' E 007°02'0 0.0
2015-Aug-24 21:31N 43°32' E 007°02'0 0.0
2015-Aug-24 20:19N 43°32' E 007°02'0 0.0
2015-Aug-24 19:31N 43°32' E 007°02'  

Dump ship's entire track history